sensor_id;sensor_type;location;lat;lon;timestamp;temperature;humidity
24448;DHT22;13348;50.984;5.822;2023-09-19T00:00:25;15.00;99.90
24448;DHT22;13348;50.984;5.822;2023-09-19T00:02:53;15.10;99.90
24448;DHT22;13348;50.984;5.822;2023-09-19T00:05:24;15.10;99.90
24448;DHT22;13348;50.984;5.822;2023-09-19T00:07:53;15.10;99.90
24448;DHT22;13348;50.984;5.822;2023-09-19T00:10:20;15.10;99.90
24448;DHT22;13348;50.984;5.822;2023-09-19T00:12:49;15.10;99.90
24448;DHT22;13348;50.984;5.822;2023-09-19T00:15:17;15.10;99.90
24448;DHT22;13348;50.984;5.822;2023-09-19T00:17:44;15.10;99.90
24448;DHT22;13348;50.984;5.822;2023-09-19T00:20:13;15.00;99.90
24448;DHT22;13348;50.984;5.822;2023-09-19T00:22:44;15.00;99.90
24448;DHT22;13348;50.984;5.822;2023-09-19T00:25:11;15.00;99.90
24448;DHT22;13348;50.984;5.822;2023-09-19T00:27:41;15.00;99.90
24448;DHT22;13348;50.984;5.822;2023-09-19T00:30:11;15.00;99.90
24448;DHT22;13348;50.984;5.822;2023-09-19T00:32:41;15.00;99.90
24448;DHT22;13348;50.984;5.822;2023-09-19T00:35:08;15.00;99.90
24448;DHT22;13348;50.984;5.822;2023-09-19T00:37:36;14.90;99.90
24448;DHT22;13348;50.984;5.822;2023-09-19T00:40:04;14.90;99.90
24448;DHT22;13348;50.984;5.822;2023-09-19T00:42:33;14.90;99.90
24448;DHT22;13348;50.984;5.822;2023-09-19T00:45:03;14.90;99.90
24448;DHT22;13348;50.984;5.822;2023-09-19T00:47:31;14.90;99.90
24448;DHT22;13348;50.984;5.822;2023-09-19T00:49:57;14.80;99.90
24448;DHT22;13348;50.984;5.822;2023-09-19T00:52:24;14.90;99.90
24448;DHT22;13348;50.984;5.822;2023-09-19T00:54:52;14.90;99.90
24448;DHT22;13348;50.984;5.822;2023-09-19T00:57:20;14.90;99.90
24448;DHT22;13348;50.984;5.822;2023-09-19T00:59:48;14.90;99.90
24448;DHT22;13348;50.984;5.822;2023-09-19T01:02:17;14.90;99.90
24448;DHT22;13348;50.984;5.822;2023-09-19T01:04:44;14.90;99.90
24448;DHT22;13348;50.984;5.822;2023-09-19T01:07:11;15.00;99.90
24448;DHT22;13348;50.984;5.822;2023-09-19T01:09:40;15.00;99.90
24448;DHT22;13348;50.984;5.822;2023-09-19T01:12:08;15.00;99.90
24448;DHT22;13348;50.984;5.822;2023-09-19T01:14:41;15.00;99.90
24448;DHT22;13348;50.984;5.822;2023-09-19T01:17:14;15.00;99.90
24448;DHT22;13348;50.984;5.822;2023-09-19T01:22:32;14.90;99.90
24448;DHT22;13348;50.984;5.822;2023-09-19T01:25:15;15.00;99.90
24448;DHT22;13348;50.984;5.822;2023-09-19T01:30:33;15.00;99.90
24448;DHT22;13348;50.984;5.822;2023-09-19T01:33:03;15.00;99.90
24448;DHT22;13348;50.984;5.822;2023-09-19T01:35:31;15.00;99.90
24448;DHT22;13348;50.984;5.822;2023-09-19T01:37:59;15.00;99.90
24448;DHT22;13348;50.984;5.822;2023-09-19T01:40:26;15.00;99.90
24448;DHT22;13348;50.984;5.822;2023-09-19T01:42:54;14.80;99.90
24448;DHT22;13348;50.984;5.822;2023-09-19T01:45:26;14.80;99.90
24448;DHT22;13348;50.984;5.822;2023-09-19T01:47:56;14.90;99.90
24448;DHT22;13348;50.984;5.822;2023-09-19T01:50:30;14.80;99.90
24448;DHT22;13348;50.984;5.822;2023-09-19T01:52:59;14.80;99.90
24448;DHT22;13348;50.984;5.822;2023-09-19T01:55:29;14.80;99.90
24448;DHT22;13348;50.984;5.822;2023-09-19T01:58:00;14.80;99.90
24448;DHT22;13348;50.984;5.822;2023-09-19T02:00:30;14.70;99.90
24448;DHT22;13348;50.984;5.822;2023-09-19T02:03:00;14.70;99.90
24448;DHT22;13348;50.984;5.822;2023-09-19T02:05:28;14.70;99.90
24448;DHT22;13348;50.984;5.822;2023-09-19T02:07:55;14.60;99.90
24448;DHT22;13348;50.984;5.822;2023-09-19T02:10:24;14.70;99.90
24448;DHT22;13348;50.984;5.822;2023-09-19T02:12:51;14.60;99.90
24448;DHT22;13348;50.984;5.822;2023-09-19T02:15:18;14.50;99.90
24448;DHT22;13348;50.984;5.822;2023-09-19T02:17:45;14.50;99.90
24448;DHT22;13348;50.984;5.822;2023-09-19T02:20:13;14.50;99.90
24448;DHT22;13348;50.984;5.822;2023-09-19T02:22:42;14.50;99.90
24448;DHT22;13348;50.984;5.822;2023-09-19T02:25:09;14.50;99.90
24448;DHT22;13348;50.984;5.822;2023-09-19T02:27:36;14.50;99.90
24448;DHT22;13348;50.984;5.822;2023-09-19T02:30:05;14.50;99.90
24448;DHT22;13348;50.984;5.822;2023-09-19T02:32:32;14.40;99.90
24448;DHT22;13348;50.984;5.822;2023-09-19T02:35:05;14.50;99.90
24448;DHT22;13348;50.984;5.822;2023-09-19T02:37:33;14.50;99.90
24448;DHT22;13348;50.984;5.822;2023-09-19T02:40:00;14.40;99.90
24448;DHT22;13348;50.984;5.822;2023-09-19T02:42:44;14.40;99.90
24448;DHT22;13348;50.984;5.822;2023-09-19T02:45:15;14.40;99.90
24448;DHT22;13348;50.984;5.822;2023-09-19T02:47:43;14.50;99.90
24448;DHT22;13348;50.984;5.822;2023-09-19T02:50:09;14.40;99.90
24448;DHT22;13348;50.984;5.822;2023-09-19T02:52:38;14.40;99.90
24448;DHT22;13348;50.984;5.822;2023-09-19T02:55:05;14.40;99.90
24448;DHT22;13348;50.984;5.822;2023-09-19T02:57:34;14.40;99.90
24448;DHT22;13348;50.984;5.822;2023-09-19T03:00:01;14.50;99.90
24448;DHT22;13348;50.984;5.822;2023-09-19T03:02:30;14.50;99.90
24448;DHT22;13348;50.984;5.822;2023-09-19T03:05:00;14.40;99.90
24448;DHT22;13348;50.984;5.822;2023-09-19T03:07:28;14.50;99.90
24448;DHT22;13348;50.984;5.822;2023-09-19T03:09:58;14.60;99.90
24448;DHT22;13348;50.984;5.822;2023-09-19T03:12:25;14.60;99.90
24448;DHT22;13348;50.984;5.822;2023-09-19T03:14:52;14.50;99.90
24448;DHT22;13348;50.984;5.822;2023-09-19T03:17:19;14.50;99.90
24448;DHT22;13348;50.984;5.822;2023-09-19T03:19:46;14.50;99.90
24448;DHT22;13348;50.984;5.822;2023-09-19T03:22:14;14.50;99.90
24448;DHT22;13348;50.984;5.822;2023-09-19T03:24:41;14.60;99.90
24448;DHT22;13348;50.984;5.822;2023-09-19T03:27:10;14.50;99.90
24448;DHT22;13348;50.984;5.822;2023-09-19T03:29:39;14.50;99.90
24448;DHT22;13348;50.984;5.822;2023-09-19T03:32:06;14.50;99.90
24448;DHT22;13348;50.984;5.822;2023-09-19T03:34:35;14.40;99.90
24448;DHT22;13348;50.984;5.822;2023-09-19T03:37:03;14.40;99.90
24448;DHT22;13348;50.984;5.822;2023-09-19T03:39:30;14.40;99.90
24448;DHT22;13348;50.984;5.822;2023-09-19T03:41:57;14.30;99.90
24448;DHT22;13348;50.984;5.822;2023-09-19T03:44:25;14.40;99.90
24448;DHT22;13348;50.984;5.822;2023-09-19T03:46:52;14.40;99.90
24448;DHT22;13348;50.984;5.822;2023-09-19T03:49:21;14.40;99.90
24448;DHT22;13348;50.984;5.822;2023-09-19T03:51:48;14.30;99.90
24448;DHT22;13348;50.984;5.822;2023-09-19T03:54:15;14.30;99.90
24448;DHT22;13348;50.984;5.822;2023-09-19T03:56:42;14.40;99.90
24448;DHT22;13348;50.984;5.822;2023-09-19T03:59:09;14.40;99.90
24448;DHT22;13348;50.984;5.822;2023-09-19T04:01:37;14.30;99.90
24448;DHT22;13348;50.984;5.822;2023-09-19T04:04:04;14.30;99.90
24448;DHT22;13348;50.984;5.822;2023-09-19T04:06:34;14.40;99.90
24448;DHT22;13348;50.984;5.822;2023-09-19T04:09:01;14.40;99.90
24448;DHT22;13348;50.984;5.822;2023-09-19T04:11:29;14.40;99.90
24448;DHT22;13348;50.984;5.822;2023-09-19T04:13:56;14.40;99.90
24448;DHT22;13348;50.984;5.822;2023-09-19T04:16:23;14.40;99.90
24448;DHT22;13348;50.984;5.822;2023-09-19T04:18:52;14.40;99.90
24448;DHT22;13348;50.984;5.822;2023-09-19T04:21:19;14.40;99.90
24448;DHT22;13348;50.984;5.822;2023-09-19T04:23:46;14.40;99.90
24448;DHT22;13348;50.984;5.822;2023-09-19T04:26:13;14.40;99.90
24448;DHT22;13348;50.984;5.822;2023-09-19T04:28:41;14.40;99.90
24448;DHT22;13348;50.984;5.822;2023-09-19T04:31:09;14.40;99.90
24448;DHT22;13348;50.984;5.822;2023-09-19T04:33:37;14.40;99.90
24448;DHT22;13348;50.984;5.822;2023-09-19T04:36:05;14.50;99.90
24448;DHT22;13348;50.984;5.822;2023-09-19T04:38:33;14.50;99.90
24448;DHT22;13348;50.984;5.822;2023-09-19T04:41:00;14.60;99.90
24448;DHT22;13348;50.984;5.822;2023-09-19T04:43:27;14.50;99.90
24448;DHT22;13348;50.984;5.822;2023-09-19T04:45:54;14.40;99.90
24448;DHT22;13348;50.984;5.822;2023-09-19T04:48:21;14.40;99.90
24448;DHT22;13348;50.984;5.822;2023-09-19T04:50:49;14.40;99.90
24448;DHT22;13348;50.984;5.822;2023-09-19T04:53:18;14.40;99.90
24448;DHT22;13348;50.984;5.822;2023-09-19T04:55:49;14.50;99.90
24448;DHT22;13348;50.984;5.822;2023-09-19T04:58:16;14.40;99.90
24448;DHT22;13348;50.984;5.822;2023-09-19T05:00:43;14.40;99.90
24448;DHT22;13348;50.984;5.822;2023-09-19T05:03:10;14.40;99.90
24448;DHT22;13348;50.984;5.822;2023-09-19T05:05:38;14.30;99.90
24448;DHT22;13348;50.984;5.822;2023-09-19T05:08:06;14.40;99.90
24448;DHT22;13348;50.984;5.822;2023-09-19T05:10:36;14.40;99.90
24448;DHT22;13348;50.984;5.822;2023-09-19T05:13:03;14.40;99.90
24448;DHT22;13348;50.984;5.822;2023-09-19T05:15:30;14.40;99.90
24448;DHT22;13348;50.984;5.822;2023-09-19T05:17:57;14.40;99.90
24448;DHT22;13348;50.984;5.822;2023-09-19T05:20:24;14.40;99.90
24448;DHT22;13348;50.984;5.822;2023-09-19T05:22:57;14.30;99.90
24448;DHT22;13348;50.984;5.822;2023-09-19T05:25:26;14.20;99.90
24448;DHT22;13348;50.984;5.822;2023-09-19T05:27:57;14.20;99.90
24448;DHT22;13348;50.984;5.822;2023-09-19T05:30:24;14.20;99.90
24448;DHT22;13348;50.984;5.822;2023-09-19T05:32:52;14.20;99.90
24448;DHT22;13348;50.984;5.822;2023-09-19T05:35:19;14.20;99.90
24448;DHT22;13348;50.984;5.822;2023-09-19T05:37:47;14.20;99.90
24448;DHT22;13348;50.984;5.822;2023-09-19T05:40:16;14.30;99.90
24448;DHT22;13348;50.984;5.822;2023-09-19T05:42:43;14.30;99.90
24448;DHT22;13348;50.984;5.822;2023-09-19T05:45:12;14.30;99.90
24448;DHT22;13348;50.984;5.822;2023-09-19T05:47:39;14.30;99.90
24448;DHT22;13348;50.984;5.822;2023-09-19T05:50:11;14.40;99.90
24448;DHT22;13348;50.984;5.822;2023-09-19T05:52:38;14.30;99.90
24448;DHT22;13348;50.984;5.822;2023-09-19T05:55:06;14.20;99.90
24448;DHT22;13348;50.984;5.822;2023-09-19T05:57:33;14.20;99.90
24448;DHT22;13348;50.984;5.822;2023-09-19T06:00:01;14.20;99.90
24448;DHT22;13348;50.984;5.822;2023-09-19T06:02:36;14.20;99.90
24448;DHT22;13348;50.984;5.822;2023-09-19T06:05:03;14.20;99.90
24448;DHT22;13348;50.984;5.822;2023-09-19T06:07:31;14.20;99.90
24448;DHT22;13348;50.984;5.822;2023-09-19T06:10:02;14.20;99.90
24448;DHT22;13348;50.984;5.822;2023-09-19T06:12:31;14.30;99.90
24448;DHT22;13348;50.984;5.822;2023-09-19T06:14:59;14.30;99.90
24448;DHT22;13348;50.984;5.822;2023-09-19T06:17:26;14.40;99.90
24448;DHT22;13348;50.984;5.822;2023-09-19T06:19:54;14.40;99.90
24448;DHT22;13348;50.984;5.822;2023-09-19T06:22:21;14.40;99.90
24448;DHT22;13348;50.984;5.822;2023-09-19T06:24:49;14.50;99.90
24448;DHT22;13348;50.984;5.822;2023-09-19T06:27:16;14.50;99.90
24448;DHT22;13348;50.984;5.822;2023-09-19T06:29:43;14.60;99.90
24448;DHT22;13348;50.984;5.822;2023-09-19T06:32:10;14.60;99.90
24448;DHT22;13348;50.984;5.822;2023-09-19T06:34:37;14.70;99.90
24448;DHT22;13348;50.984;5.822;2023-09-19T06:37:05;14.60;99.90
24448;DHT22;13348;50.984;5.822;2023-09-19T06:39:32;14.60;99.90
24448;DHT22;13348;50.984;5.822;2023-09-19T06:41:59;14.70;99.90
24448;DHT22;13348;50.984;5.822;2023-09-19T06:44:27;14.70;99.90
24448;DHT22;13348;50.984;5.822;2023-09-19T06:46:55;14.80;99.90
24448;DHT22;13348;50.984;5.822;2023-09-19T06:49:21;14.80;99.90
24448;DHT22;13348;50.984;5.822;2023-09-19T06:51:48;14.80;99.90
24448;DHT22;13348;50.984;5.822;2023-09-19T06:54:17;14.80;99.90
24448;DHT22;13348;50.984;5.822;2023-09-19T06:56:44;14.80;99.90
24448;DHT22;13348;50.984;5.822;2023-09-19T06:59:11;14.90;99.90
24448;DHT22;13348;50.984;5.822;2023-09-19T07:01:40;14.90;99.90
24448;DHT22;13348;50.984;5.822;2023-09-19T07:04:07;14.90;99.90
24448;DHT22;13348;50.984;5.822;2023-09-19T07:06:34;15.00;99.90
24448;DHT22;13348;50.984;5.822;2023-09-19T07:09:01;15.00;99.90
24448;DHT22;13348;50.984;5.822;2023-09-19T07:11:30;15.00;99.90
24448;DHT22;13348;50.984;5.822;2023-09-19T07:13:57;15.10;99.90
24448;DHT22;13348;50.984;5.822;2023-09-19T07:16:24;15.10;99.90
24448;DHT22;13348;50.984;5.822;2023-09-19T07:18:54;15.20;99.90
24448;DHT22;13348;50.984;5.822;2023-09-19T07:21:22;15.20;99.90
24448;DHT22;13348;50.984;5.822;2023-09-19T07:23:49;15.30;99.90
24448;DHT22;13348;50.984;5.822;2023-09-19T07:26:16;15.30;99.90
24448;DHT22;13348;50.984;5.822;2023-09-19T07:28:44;15.40;99.90
24448;DHT22;13348;50.984;5.822;2023-09-19T07:31:11;15.40;99.90
24448;DHT22;13348;50.984;5.822;2023-09-19T07:33:39;15.40;99.90
24448;DHT22;13348;50.984;5.822;2023-09-19T07:36:09;15.50;99.90
24448;DHT22;13348;50.984;5.822;2023-09-19T07:38:36;15.60;99.90
24448;DHT22;13348;50.984;5.822;2023-09-19T07:41:03;15.60;99.90
24448;DHT22;13348;50.984;5.822;2023-09-19T07:43:30;15.70;99.90
24448;DHT22;13348;50.984;5.822;2023-09-19T07:46:04;15.70;99.90
24448;DHT22;13348;50.984;5.822;2023-09-19T07:48:32;15.80;99.90
24448;DHT22;13348;50.984;5.822;2023-09-19T07:51:01;15.70;99.90
24448;DHT22;13348;50.984;5.822;2023-09-19T07:53:28;15.80;99.90
24448;DHT22;13348;50.984;5.822;2023-09-19T07:56:01;15.90;99.90
24448;DHT22;13348;50.984;5.822;2023-09-19T07:58:29;15.90;99.90
24448;DHT22;13348;50.984;5.822;2023-09-19T08:00:56;15.90;99.90
24448;DHT22;13348;50.984;5.822;2023-09-19T08:03:30;16.00;99.90
24448;DHT22;13348;50.984;5.822;2023-09-19T08:05:57;16.00;99.90
24448;DHT22;13348;50.984;5.822;2023-09-19T08:08:24;16.00;99.90
24448;DHT22;13348;50.984;5.822;2023-09-19T08:10:52;16.10;99.90
24448;DHT22;13348;50.984;5.822;2023-09-19T08:13:21;16.20;99.90
24448;DHT22;13348;50.984;5.822;2023-09-19T08:15:48;16.20;99.90
24448;DHT22;13348;50.984;5.822;2023-09-19T08:18:16;16.30;99.90
24448;DHT22;13348;50.984;5.822;2023-09-19T08:20:48;16.50;99.90
24448;DHT22;13348;50.984;5.822;2023-09-19T08:23:16;16.50;99.90
24448;DHT22;13348;50.984;5.822;2023-09-19T08:25:43;16.60;99.90
24448;DHT22;13348;50.984;5.822;2023-09-19T08:28:10;16.50;99.90
24448;DHT22;13348;50.984;5.822;2023-09-19T08:30:43;16.60;99.90
24448;DHT22;13348;50.984;5.822;2023-09-19T08:33:11;16.60;99.90
24448;DHT22;13348;50.984;5.822;2023-09-19T08:35:40;16.70;99.90
24448;DHT22;13348;50.984;5.822;2023-09-19T08:38:09;16.80;99.90
24448;DHT22;13348;50.984;5.822;2023-09-19T08:40:37;16.80;99.90
24448;DHT22;13348;50.984;5.822;2023-09-19T08:43:05;16.90;99.90
24448;DHT22;13348;50.984;5.822;2023-09-19T08:45:32;16.90;99.90
24448;DHT22;13348;50.984;5.822;2023-09-19T08:48:01;16.90;99.90
24448;DHT22;13348;50.984;5.822;2023-09-19T08:50:33;16.90;99.90
24448;DHT22;13348;50.984;5.822;2023-09-19T08:53:05;16.90;99.90
24448;DHT22;13348;50.984;5.822;2023-09-19T08:55:38;16.90;99.90
24448;DHT22;13348;50.984;5.822;2023-09-19T08:58:08;17.10;99.90
24448;DHT22;13348;50.984;5.822;2023-09-19T09:00:38;17.10;99.90
24448;DHT22;13348;50.984;5.822;2023-09-19T09:03:08;17.30;99.90
24448;DHT22;13348;50.984;5.822;2023-09-19T09:05:35;17.20;99.90
24448;DHT22;13348;50.984;5.822;2023-09-19T09:08:06;17.30;99.90
24448;DHT22;13348;50.984;5.822;2023-09-19T09:10:33;17.20;99.90
24448;DHT22;13348;50.984;5.822;2023-09-19T09:13:02;17.30;99.90
24448;DHT22;13348;50.984;5.822;2023-09-19T09:15:34;17.20;99.90
24448;DHT22;13348;50.984;5.822;2023-09-19T09:18:02;17.40;99.90
24448;DHT22;13348;50.984;5.822;2023-09-19T09:20:30;17.70;99.90
24448;DHT22;13348;50.984;5.822;2023-09-19T09:22:57;17.40;99.90
24448;DHT22;13348;50.984;5.822;2023-09-19T09:25:46;17.50;99.90
24448;DHT22;13348;50.984;5.822;2023-09-19T09:28:15;17.50;99.90
24448;DHT22;13348;50.984;5.822;2023-09-19T09:30:46;17.50;99.90
24448;DHT22;13348;50.984;5.822;2023-09-19T09:33:13;17.70;99.90
24448;DHT22;13348;50.984;5.822;2023-09-19T09:35:48;17.80;99.90
24448;DHT22;13348;50.984;5.822;2023-09-19T09:38:17;18.00;99.90
24448;DHT22;13348;50.984;5.822;2023-09-19T09:40:47;18.10;99.90
24448;DHT22;13348;50.984;5.822;2023-09-19T09:43:26;18.30;99.90
24448;DHT22;13348;50.984;5.822;2023-09-19T09:46:07;18.40;99.90
24448;DHT22;13348;50.984;5.822;2023-09-19T09:48:59;18.60;99.90
24448;DHT22;13348;50.984;5.822;2023-09-19T09:51:41;18.60;99.90
24448;DHT22;13348;50.984;5.822;2023-09-19T09:54:12;19.00;99.90
24448;DHT22;13348;50.984;5.822;2023-09-19T09:56:56;18.70;99.90
24448;DHT22;13348;50.984;5.822;2023-09-19T10:02:13;18.70;99.90
24448;DHT22;13348;50.984;5.822;2023-09-19T10:04:42;18.60;99.90
24448;DHT22;13348;50.984;5.822;2023-09-19T10:07:26;18.70;99.90
24448;DHT22;13348;50.984;5.822;2023-09-19T10:10:01;19.00;99.90
24448;DHT22;13348;50.984;5.822;2023-09-19T10:12:42;19.00;99.90
24448;DHT22;13348;50.984;5.822;2023-09-19T10:15:10;19.10;99.90
24448;DHT22;13348;50.984;5.822;2023-09-19T10:17:39;18.90;99.90
24448;DHT22;13348;50.984;5.822;2023-09-19T10:20:09;18.90;99.90
24448;DHT22;13348;50.984;5.822;2023-09-19T10:22:48;18.80;99.90
24448;DHT22;13348;50.984;5.822;2023-09-19T10:25:26;18.70;99.90
24448;DHT22;13348;50.984;5.822;2023-09-19T10:27:56;18.60;99.90
24448;DHT22;13348;50.984;5.822;2023-09-19T10:30:24;18.50;99.90
24448;DHT22;13348;50.984;5.822;2023-09-19T10:32:57;18.80;99.90
24448;DHT22;13348;50.984;5.822;2023-09-19T10:35:26;18.60;99.90
24448;DHT22;13348;50.984;5.822;2023-09-19T10:37:54;18.70;99.90
24448;DHT22;13348;50.984;5.822;2023-09-19T10:40:21;18.80;99.90
24448;DHT22;13348;50.984;5.822;2023-09-19T10:42:52;18.90;99.90
24448;DHT22;13348;50.984;5.822;2023-09-19T10:45:20;19.10;99.90
24448;DHT22;13348;50.984;5.822;2023-09-19T10:47:48;19.20;99.90
24448;DHT22;13348;50.984;5.822;2023-09-19T10:50:20;19.10;99.90
24448;DHT22;13348;50.984;5.822;2023-09-19T10:52:48;19.10;99.90
24448;DHT22;13348;50.984;5.822;2023-09-19T10:55:15;19.30;99.90
24448;DHT22;13348;50.984;5.822;2023-09-19T10:57:44;19.30;99.90
24448;DHT22;13348;50.984;5.822;2023-09-19T11:00:12;19.30;99.90
24448;DHT22;13348;50.984;5.822;2023-09-19T11:05:36;19.80;99.90
24448;DHT22;13348;50.984;5.822;2023-09-19T11:08:06;20.10;99.90
24448;DHT22;13348;50.984;5.822;2023-09-19T11:10:45;20.10;99.90
24448;DHT22;13348;50.984;5.822;2023-09-19T11:13:25;20.40;99.90
24448;DHT22;13348;50.984;5.822;2023-09-19T11:24:29;21.30;99.90
24448;DHT22;13348;50.984;5.822;2023-09-19T11:27:11;21.10;99.90
24448;DHT22;13348;50.984;5.822;2023-09-19T11:29:39;20.90;99.90
24448;DHT22;13348;50.984;5.822;2023-09-19T11:32:06;20.90;99.90
24448;DHT22;13348;50.984;5.822;2023-09-19T11:34:38;21.00;99.90
24448;DHT22;13348;50.984;5.822;2023-09-19T11:37:25;21.20;99.90
24448;DHT22;13348;50.984;5.822;2023-09-19T11:40:06;21.50;99.90
24448;DHT22;13348;50.984;5.822;2023-09-19T11:42:41;21.40;99.90
24448;DHT22;13348;50.984;5.822;2023-09-19T11:47:51;20.90;99.90
24448;DHT22;13348;50.984;5.822;2023-09-19T11:50:19;21.10;99.90
24448;DHT22;13348;50.984;5.822;2023-09-19T11:52:47;20.70;99.90
24448;DHT22;13348;50.984;5.822;2023-09-19T11:55:15;21.00;99.90
24448;DHT22;13348;50.984;5.822;2023-09-19T11:57:46;20.80;99.90
24448;DHT22;13348;50.984;5.822;2023-09-19T12:00:17;21.20;99.90
24448;DHT22;13348;50.984;5.822;2023-09-19T12:02:45;21.00;99.90
24448;DHT22;13348;50.984;5.822;2023-09-19T12:05:13;20.70;99.90
24448;DHT22;13348;50.984;5.822;2023-09-19T12:07:43;21.00;99.90
24448;DHT22;13348;50.984;5.822;2023-09-19T12:10:13;20.90;99.90
24448;DHT22;13348;50.984;5.822;2023-09-19T12:12:48;21.10;99.90
24448;DHT22;13348;50.984;5.822;2023-09-19T12:15:17;20.90;99.90
24448;DHT22;13348;50.984;5.822;2023-09-19T12:17:50;21.10;99.90
24448;DHT22;13348;50.984;5.822;2023-09-19T12:20:19;21.50;99.90
24448;DHT22;13348;50.984;5.822;2023-09-19T12:22:47;21.80;99.90
24448;DHT22;13348;50.984;5.822;2023-09-19T12:25:15;21.40;99.90
24448;DHT22;13348;50.984;5.822;2023-09-19T12:27:44;21.30;99.90
24448;DHT22;13348;50.984;5.822;2023-09-19T12:30:14;21.10;99.90
24448;DHT22;13348;50.984;5.822;2023-09-19T12:32:43;20.90;99.90
24448;DHT22;13348;50.984;5.822;2023-09-19T12:35:10;21.00;99.90
24448;DHT22;13348;50.984;5.822;2023-09-19T12:37:54;20.90;99.90
24448;DHT22;13348;50.984;5.822;2023-09-19T12:40:22;21.10;99.90
24448;DHT22;13348;50.984;5.822;2023-09-19T12:42:53;21.60;99.90
24448;DHT22;13348;50.984;5.822;2023-09-19T12:45:22;21.30;99.90
24448;DHT22;13348;50.984;5.822;2023-09-19T12:50:34;20.90;99.90
24448;DHT22;13348;50.984;5.822;2023-09-19T12:53:03;20.60;99.90
24448;DHT22;13348;50.984;5.822;2023-09-19T12:55:30;20.60;99.90
24448;DHT22;13348;50.984;5.822;2023-09-19T12:57:58;20.60;99.90
24448;DHT22;13348;50.984;5.822;2023-09-19T13:00:34;20.40;99.90
24448;DHT22;13348;50.984;5.822;2023-09-19T13:03:14;20.30;99.90
24448;DHT22;13348;50.984;5.822;2023-09-19T13:05:48;20.20;99.90
24448;DHT22;13348;50.984;5.822;2023-09-19T13:08:19;20.30;99.90
24448;DHT22;13348;50.984;5.822;2023-09-19T13:11:03;20.40;99.90
24448;DHT22;13348;50.984;5.822;2023-09-19T13:13:32;20.50;99.90
24448;DHT22;13348;50.984;5.822;2023-09-19T13:16:00;20.80;99.90
24448;DHT22;13348;50.984;5.822;2023-09-19T13:18:28;20.80;99.90
24448;DHT22;13348;50.984;5.822;2023-09-19T13:23:37;20.00;99.90
24448;DHT22;13348;50.984;5.822;2023-09-19T13:26:05;19.70;99.90
24448;DHT22;13348;50.984;5.822;2023-09-19T13:28:33;19.70;99.90
24448;DHT22;13348;50.984;5.822;2023-09-19T13:31:01;19.80;99.90
24448;DHT22;13348;50.984;5.822;2023-09-19T13:33:28;19.80;99.90
24448;DHT22;13348;50.984;5.822;2023-09-19T13:35:56;19.90;99.90
24448;DHT22;13348;50.984;5.822;2023-09-19T13:38:23;20.00;99.90
24448;DHT22;13348;50.984;5.822;2023-09-19T13:40:50;20.00;99.90
24448;DHT22;13348;50.984;5.822;2023-09-19T13:43:18;20.30;99.90
24448;DHT22;13348;50.984;5.822;2023-09-19T13:45:47;20.40;99.90
24448;DHT22;13348;50.984;5.822;2023-09-19T13:48:17;20.20;99.90
24448;DHT22;13348;50.984;5.822;2023-09-19T13:50:47;20.00;99.90
24448;DHT22;13348;50.984;5.822;2023-09-19T13:53:14;20.20;99.90
24448;DHT22;13348;50.984;5.822;2023-09-19T13:55:42;20.30;99.90
24448;DHT22;13348;50.984;5.822;2023-09-19T13:58:09;20.20;99.90
24448;DHT22;13348;50.984;5.822;2023-09-19T14:00:37;20.00;99.90
24448;DHT22;13348;50.984;5.822;2023-09-19T14:03:04;19.80;99.90
24448;DHT22;13348;50.984;5.822;2023-09-19T14:05:32;19.80;99.90
24448;DHT22;13348;50.984;5.822;2023-09-19T14:07:59;20.20;99.90
24448;DHT22;13348;50.984;5.822;2023-09-19T14:10:28;20.20;99.90
24448;DHT22;13348;50.984;5.822;2023-09-19T14:12:56;20.00;99.90
24448;DHT22;13348;50.984;5.822;2023-09-19T14:15:25;20.10;99.90
24448;DHT22;13348;50.984;5.822;2023-09-19T14:17:55;20.30;99.90
24448;DHT22;13348;50.984;5.822;2023-09-19T14:20:22;20.30;99.90
24448;DHT22;13348;50.984;5.822;2023-09-19T14:22:51;20.30;99.90
24448;DHT22;13348;50.984;5.822;2023-09-19T14:25:18;20.60;99.90
24448;DHT22;13348;50.984;5.822;2023-09-19T14:27:46;20.40;99.90
24448;DHT22;13348;50.984;5.822;2023-09-19T14:30:13;20.50;99.90
24448;DHT22;13348;50.984;5.822;2023-09-19T14:32:40;20.20;99.90
24448;DHT22;13348;50.984;5.822;2023-09-19T14:35:07;19.90;99.90
24448;DHT22;13348;50.984;5.822;2023-09-19T14:37:34;19.80;99.90
24448;DHT22;13348;50.984;5.822;2023-09-19T14:40:05;19.90;99.90
24448;DHT22;13348;50.984;5.822;2023-09-19T14:42:34;19.80;99.90
24448;DHT22;13348;50.984;5.822;2023-09-19T14:45:04;19.70;99.90
24448;DHT22;13348;50.984;5.822;2023-09-19T14:47:31;19.70;99.90
24448;DHT22;13348;50.984;5.822;2023-09-19T14:49:59;19.60;99.90
24448;DHT22;13348;50.984;5.822;2023-09-19T14:52:26;19.70;99.90
24448;DHT22;13348;50.984;5.822;2023-09-19T14:54:53;19.90;99.90
24448;DHT22;13348;50.984;5.822;2023-09-19T14:57:22;19.80;99.90
24448;DHT22;13348;50.984;5.822;2023-09-19T14:59:50;19.60;99.90
24448;DHT22;13348;50.984;5.822;2023-09-19T15:02:17;19.50;99.90
24448;DHT22;13348;50.984;5.822;2023-09-19T15:04:44;19.50;99.90
24448;DHT22;13348;50.984;5.822;2023-09-19T15:07:13;19.40;99.90
24448;DHT22;13348;50.984;5.822;2023-09-19T15:09:41;19.40;99.90
24448;DHT22;13348;50.984;5.822;2023-09-19T15:12:09;19.50;99.90
24448;DHT22;13348;50.984;5.822;2023-09-19T15:14:38;19.50;99.90
24448;DHT22;13348;50.984;5.822;2023-09-19T15:17:05;19.50;99.90
24448;DHT22;13348;50.984;5.822;2023-09-19T15:19:32;19.60;99.90
24448;DHT22;13348;50.984;5.822;2023-09-19T15:21:59;20.00;99.90
24448;DHT22;13348;50.984;5.822;2023-09-19T15:24:26;20.70;99.90
24448;DHT22;13348;50.984;5.822;2023-09-19T15:26:53;20.80;99.90
24448;DHT22;13348;50.984;5.822;2023-09-19T15:29:21;20.30;99.90
24448;DHT22;13348;50.984;5.822;2023-09-19T15:31:49;20.00;99.90
24448;DHT22;13348;50.984;5.822;2023-09-19T15:34:16;20.10;99.90
24448;DHT22;13348;50.984;5.822;2023-09-19T15:36:43;20.00;99.90
24448;DHT22;13348;50.984;5.822;2023-09-19T15:39:11;20.00;99.90
24448;DHT22;13348;50.984;5.822;2023-09-19T15:41:41;19.70;99.90
24448;DHT22;13348;50.984;5.822;2023-09-19T15:44:11;19.60;99.90
24448;DHT22;13348;50.984;5.822;2023-09-19T15:46:39;19.60;99.90
24448;DHT22;13348;50.984;5.822;2023-09-19T15:49:07;19.60;99.90
24448;DHT22;13348;50.984;5.822;2023-09-19T15:51:35;19.60;99.90
24448;DHT22;13348;50.984;5.822;2023-09-19T15:54:06;19.60;99.90
24448;DHT22;13348;50.984;5.822;2023-09-19T15:56:34;19.60;99.90
24448;DHT22;13348;50.984;5.822;2023-09-19T15:59:01;19.60;99.90
24448;DHT22;13348;50.984;5.822;2023-09-19T16:01:28;19.90;99.90
24448;DHT22;13348;50.984;5.822;2023-09-19T16:03:55;20.00;99.90
24448;DHT22;13348;50.984;5.822;2023-09-19T16:06:24;19.80;99.90
24448;DHT22;13348;50.984;5.822;2023-09-19T16:08:51;20.00;99.90